CYNA

Natashquan Airport

ICAO Code CYNA
IATA Code YNA
Name Natashquan Airport
Location Natashquan, Quebec, CA
Elevation 39 Feet / 11.9 Meters
Latitude 50.19000000
Longitude -61.78888889
METAR CYNA 182300Z AUTO 05009G15KT 4SM -RA BR OVC007 16/15 A2987 RMK PCPN 0.5MM PAST HR SLP117 DENSITY ALT 200FT
Extra information Display NOTAMS
Display Charts
Runway Length Width Surface Elevation
14 4495 ft 100 ft ASP 35 ft
32 4495 ft 100 ft ASP 39 ft